createdAt,value
2023-05-14T00:00:31.839Z,9658.44
2023-05-14T00:02:58.500Z,9401.69
2023-05-14T00:05:25.083Z,8631.50
2023-05-14T00:07:51.547Z,8374.81
2023-05-14T00:10:20.304Z,8374.81
2023-05-14T00:12:46.716Z,7861.47
2023-05-14T00:15:13.272Z,7348.19
2023-05-14T00:17:39.843Z,7091.56
2023-05-14T00:20:11.989Z,6834.97
2023-05-14T00:22:39.580Z,6578.41
2023-05-14T00:25:07.558Z,6321.84
2023-05-14T00:27:34.967Z,6065.31
2023-05-14T00:30:01.428Z,6065.31
2023-05-14T00:32:27.903Z,6065.31
2023-05-14T00:34:54.297Z,5808.78
2023-05-14T00:37:20.650Z,5039.31
2023-05-14T00:39:47.104Z,5039.31
2023-05-14T00:42:13.584Z,5039.31
2023-05-14T00:44:40.014Z,5039.31
2023-05-14T00:47:07.369Z,5039.31
2023-05-14T00:49:34.940Z,5295.78
2023-05-14T00:52:01.664Z,5295.78
2023-05-14T00:54:28.676Z,5295.78
2023-05-14T00:56:56.053Z,5039.31
2023-05-14T00:59:22.484Z,5295.78
2023-05-14T01:01:49.099Z,5552.28
2023-05-14T01:04:15.914Z,5039.31
2023-05-14T01:06:48.305Z,5295.78
2023-05-14T01:09:21.980Z,4526.41
2023-05-14T01:11:59.894Z,4782.84
2023-05-14T01:14:45.113Z,4269.97
2023-05-14T01:17:13.384Z,4269.97
2023-05-14T01:19:41.845Z,3757.19
2023-05-14T01:22:08.451Z,3244.47
2023-05-14T01:24:34.991Z,2988.13
2023-05-14T01:27:15.915Z,2731.81
2023-05-14T01:29:45.464Z,2475.50
2023-05-14T01:32:13.407Z,1962.94
2023-05-14T01:34:40.921Z,2475.50
2023-05-14T01:37:10.751Z,1962.94
2023-05-14T01:39:37.914Z,1962.94
2023-05-14T01:42:05.176Z,1962.94
2023-05-14T01:44:32.147Z,2219.22
2023-05-14T01:46:58.606Z,1450.44
2023-05-14T01:49:25.056Z,938.03
2023-05-14T01:51:51.581Z,938.03
2023-05-14T01:54:18.010Z,938.03
2023-05-14T01:56:44.599Z,681.84
2023-05-14T01:59:12.226Z,1194.22
2023-05-14T02:01:38.694Z,938.03
2023-05-14T02:04:07.239Z,681.84
2023-05-14T02:06:33.623Z,425.69
2023-05-14T02:09:00.130Z,169.53
2023-05-14T02:11:26.637Z,-86.59
2023-05-14T02:13:53.068Z,-598.81
2023-05-14T02:16:19.540Z,-342.72
2023-05-14T02:18:46.054Z,-598.81
2023-05-14T02:21:12.517Z,-854.91
2023-05-14T02:23:41.863Z,-1367.03
2023-05-14T02:26:12.292Z,-1623.06
2023-05-14T02:28:38.758Z,-1367.03
2023-05-14T02:31:05.326Z,-1623.06
2023-05-14T02:33:31.852Z,-1623.06
2023-05-14T02:35:58.397Z,-2391.03
2023-05-14T02:38:26.768Z,-2135.06
2023-05-14T02:40:53.267Z,-2135.06
2023-05-14T02:43:19.697Z,-2135.06
2023-05-14T02:45:46.081Z,-2135.06
2023-05-14T02:48:12.559Z,-2902.97
2023-05-14T02:50:39.049Z,-3158.88
2023-05-14T02:53:05.674Z,-3158.88
2023-05-14T02:55:33.068Z,-3158.88
2023-05-14T02:57:59.395Z,-3414.81
2023-05-14T03:00:26.096Z,-3670.69
2023-05-14T03:02:53.173Z,-3670.69
2023-05-14T03:05:21.012Z,-3670.69
2023-05-14T03:07:47.390Z,-3670.69
2023-05-14T03:10:14.868Z,-3670.69
2023-05-14T03:12:41.679Z,-3670.69
2023-05-14T03:15:08.976Z,-4182.44
2023-05-14T03:17:35.524Z,-4182.44
2023-05-14T03:20:02.293Z,-4438.28
2023-05-14T03:22:28.888Z,-4694.09
2023-05-14T03:24:55.282Z,-4182.44
2023-05-14T03:27:21.726Z,-4182.44
2023-05-14T03:29:48.140Z,-4438.28
2023-05-14T03:32:14.889Z,-4694.09
2023-05-14T03:34:41.550Z,-4949.91
2023-05-14T03:37:08.029Z,-4949.91
2023-05-14T03:39:34.542Z,-4949.91
2023-05-14T03:42:01.005Z,-4694.09
2023-05-14T03:44:27.679Z,-4694.09
2023-05-14T03:46:57.405Z,-4949.91
2023-05-14T03:49:23.869Z,-5205.72
2023-05-14T03:51:50.559Z,-4949.91
2023-05-14T03:54:20.188Z,-4949.91
2023-05-14T03:56:47.635Z,-4949.91
2023-05-14T03:59:13.970Z,-4694.09
2023-05-14T04:01:40.520Z,-4694.09
2023-05-14T04:04:07.103Z,-4949.91
2023-05-14T04:06:33.924Z,-4949.91
2023-05-14T04:09:00.514Z,-4949.91
2023-05-14T04:11:27.270Z,-4949.91
2023-05-14T04:13:56.188Z,-4949.91
2023-05-14T04:16:23.413Z,-4438.28
2023-05-14T04:18:50.125Z,-4694.09
2023-05-14T04:21:16.886Z,-4949.91
2023-05-14T04:23:43.305Z,-5205.72
2023-05-14T04:26:09.705Z,-5205.72
2023-05-14T04:28:36.167Z,-5205.72
2023-05-14T04:31:12.122Z,-5205.72
2023-05-14T04:33:38.602Z,-4949.91
2023-05-14T04:36:05.755Z,-4182.44
2023-05-14T04:38:33.197Z,-3926.56
2023-05-14T04:40:59.516Z,-3926.56
2023-05-14T04:43:26.068Z,-3926.56
2023-05-14T04:46:02.436Z,-3670.69
2023-05-14T04:48:29.146Z,-3414.81
2023-05-14T04:50:55.582Z,-3414.81
2023-05-14T04:53:22.042Z,-3414.81
2023-05-14T04:55:49.721Z,-3158.88
2023-05-14T04:58:16.261Z,-2902.97
2023-05-14T05:00:42.790Z,-2647.00
2023-05-14T05:03:12.595Z,-2902.97
2023-05-14T05:05:39.174Z,-3414.81
2023-05-14T05:08:05.734Z,-4182.44
2023-05-14T05:10:39.366Z,-3926.56
2023-05-14T05:13:05.837Z,-3926.56
2023-05-14T05:15:32.255Z,-3414.81
2023-05-14T05:17:58.750Z,-3158.88
2023-05-14T05:20:25.699Z,-3158.88
2023-05-14T05:22:52.166Z,-3158.88
2023-05-14T05:25:18.848Z,-3414.81
2023-05-14T05:27:45.384Z,-3414.81
2023-05-14T05:30:18.219Z,-3158.88
2023-05-14T05:32:44.778Z,-2135.06
2023-05-14T05:35:11.260Z,-1110.97
2023-05-14T05:37:41.457Z,-598.81
2023-05-14T05:40:09.255Z,-342.72
2023-05-14T05:42:37.675Z,169.53
2023-05-14T05:45:04.517Z,425.69
2023-05-14T05:47:30.988Z,938.03
2023-05-14T05:49:57.475Z,1450.44
2023-05-14T05:52:24.073Z,1706.69
2023-05-14T05:54:50.520Z,1706.69
2023-05-14T05:57:18.005Z,1450.44
2023-05-14T05:59:44.414Z,2219.22
2023-05-14T06:02:11.086Z,3244.47
2023-05-14T06:04:37.670Z,4013.56
2023-05-14T06:07:04.335Z,5039.31
2023-05-14T06:09:30.698Z,6065.31
2023-05-14T06:11:57.091Z,6321.84
2023-05-14T06:14:23.555Z,5295.78
2023-05-14T06:17:02.176Z,5039.31
2023-05-14T06:19:29.872Z,5039.31
2023-05-14T06:21:56.259Z,4782.84
2023-05-14T06:24:23.765Z,7348.19
2023-05-14T06:26:50.270Z,8888.22
2023-05-14T06:29:17.676Z,9144.94
2023-05-14T06:31:44.284Z,9401.69
2023-05-14T06:34:12.122Z,7604.81
2023-05-14T06:36:38.544Z,8888.22
2023-05-14T06:39:07.170Z,8374.81
2023-05-14T06:41:34.122Z,9401.69
2023-05-14T06:44:01.207Z,9658.44
2023-05-14T06:46:27.714Z,9144.94
2023-05-14T06:48:54.254Z,8374.81
2023-05-14T06:51:20.899Z,9401.69
2023-05-14T06:53:48.815Z,9144.94
2023-05-14T06:56:16.278Z,10428.84
2023-05-14T06:58:42.789Z,12483.97
2023-05-14T07:01:09.598Z,17883.88
2023-05-14T07:03:44.164Z,23695.94
2023-05-14T07:06:12.480Z,22003.13
2023-05-14T07:08:42.671Z,22260.72
2023-05-14T07:11:09.121Z,22260.72
2023-05-14T07:13:36.258Z,21745.56
2023-05-14T07:16:07.240Z,23353.69
2023-05-14T07:18:35.857Z,24084.53
2023-05-14T07:21:02.409Z,25522.44
2023-05-14T07:23:28.800Z,28028.94
2023-05-14T07:25:55.268Z,25474.09
2023-05-14T07:28:26.866Z,22021.25
2023-05-14T07:30:53.324Z,17626.56
2023-05-14T07:33:21.105Z,14797.31
2023-05-14T07:35:47.657Z,15054.41
2023-05-14T07:38:16.916Z,15054.41
2023-05-14T07:40:51.347Z,19259.16
2023-05-14T07:43:18.929Z,19379.81
2023-05-14T07:45:45.535Z,18141.22
2023-05-14T07:48:12.272Z,18398.53
2023-05-14T07:50:41.465Z,17369.28
2023-05-14T07:53:08.107Z,19027.91
2023-05-14T07:55:34.637Z,25836.66
2023-05-14T07:58:02.066Z,24583.91
2023-05-14T08:00:28.698Z,24890.00
2023-05-14T08:02:55.742Z,27244.97
2023-05-14T08:05:26.712Z,27315.50
2023-05-14T08:07:53.091Z,28746.53
2023-05-14T08:10:19.789Z,31446.75
2023-05-14T08:12:46.193Z,31174.44
2023-05-14T08:15:12.653Z,31146.19
2023-05-14T08:17:39.151Z,30944.47
2023-05-14T08:20:06.920Z,30444.28
2023-05-14T08:22:45.605Z,30621.78
2023-05-14T08:25:12.472Z,31230.91
2023-05-14T08:27:39.031Z,31396.31
2023-05-14T08:30:14.536Z,31390.28
2023-05-14T08:32:41.278Z,31077.59
2023-05-14T08:35:08.377Z,30916.25
2023-05-14T08:37:34.935Z,30797.25
2023-05-14T08:40:01.597Z,30964.66
2023-05-14T08:42:43.086Z,30825.47
2023-05-14T08:45:17.958Z,30908.16
2023-05-14T08:47:49.368Z,30938.44
2023-05-14T08:50:17.154Z,31234.94
2023-05-14T08:52:44.303Z,31247.03
2023-05-14T08:55:12.352Z,31912.78
2023-05-14T08:57:39.003Z,32429.28
2023-05-14T09:00:08.821Z,32267.88
2023-05-14T09:02:36.690Z,31920.84
2023-05-14T09:05:03.965Z,31398.34
2023-05-14T09:07:33.956Z,31565.78
2023-05-14T09:10:02.046Z,31779.63
2023-05-14T09:12:29.480Z,31481.03
2023-05-14T09:14:57.080Z,31400.34
2023-05-14T09:17:26.104Z,31793.75
2023-05-14T09:19:59.860Z,31628.31
2023-05-14T09:22:30.114Z,31271.25
2023-05-14T09:25:12.308Z,32098.38
2023-05-14T09:27:40.883Z,31509.28
2023-05-14T09:30:12.495Z,32338.50
2023-05-14T09:32:41.313Z,31898.66
2023-05-14T09:35:24.893Z,32154.88
2023-05-14T09:37:54.750Z,32088.31
2023-05-14T09:40:23.649Z,32090.31
2023-05-14T09:42:53.080Z,31545.59
2023-05-14T09:45:19.645Z,31711.03
2023-05-14T09:47:46.303Z,32637.13
2023-05-14T09:50:14.083Z,32849.03
2023-05-14T09:52:41.000Z,32366.75
2023-05-14T09:55:08.000Z,32929.75
2023-05-14T09:57:35.348Z,34443.56
2023-05-14T10:00:01.812Z,35154.25
2023-05-14T10:02:37.734Z,34899.84
2023-05-14T10:05:06.804Z,35533.91
2023-05-14T10:07:41.604Z,35764.09
2023-05-14T10:10:13.532Z,35570.25
2023-05-14T10:12:40.718Z,35610.63
2023-05-14T10:15:16.407Z,36515.44
2023-05-14T10:17:46.734Z,36297.28
2023-05-14T10:20:16.713Z,36374.06
2023-05-14T10:22:43.299Z,37161.88
2023-05-14T10:25:10.955Z,35630.81
2023-05-14T10:27:39.443Z,37765.97
2023-05-14T10:30:11.945Z,37953.88
2023-05-14T10:32:39.088Z,37547.75
2023-05-14T10:35:20.831Z,37169.94
2023-05-14T10:37:52.682Z,36353.84
2023-05-14T10:40:21.044Z,38273.16
2023-05-14T10:42:48.478Z,39898.22
2023-05-14T10:45:16.121Z,40456.22
2023-05-14T10:47:45.271Z,39087.63
2023-05-14T10:50:14.560Z,39320.06
2023-05-14T10:52:45.628Z,39477.72
2023-05-14T10:55:19.022Z,38396.41
2023-05-14T10:57:46.909Z,38875.38
2023-05-14T11:00:14.847Z,37937.72
2023-05-14T11:02:56.110Z,38681.38
2023-05-14T11:05:22.717Z,38475.22
2023-05-14T11:07:50.295Z,39544.44
2023-05-14T11:10:20.808Z,38602.56
2023-05-14T11:12:49.379Z,40856.56
2023-05-14T11:15:19.922Z,43526.69
2023-05-14T11:17:48.319Z,41968.91
2023-05-14T11:20:21.185Z,45870.59
2023-05-14T11:22:49.336Z,52464.50
2023-05-14T11:25:18.368Z,58955.63
2023-05-14T11:27:46.328Z,53324.50
2023-05-14T11:30:20.548Z,51953.47
2023-05-14T11:32:49.421Z,72173.59
2023-05-14T11:35:18.065Z,68730.59
2023-05-14T11:37:57.733Z,78431.56
2023-05-14T11:40:24.441Z,99254.03
2023-05-14T11:42:53.427Z,100830.22
2023-05-14T11:45:27.675Z,102669.88
2023-05-14T11:48:00.192Z,100304.75
2023-05-14T11:50:27.152Z,95578.66
2023-05-14T11:52:57.215Z,93742.22
2023-05-14T11:55:23.853Z,95578.66
2023-05-14T11:57:51.235Z,99779.38
2023-05-14T12:00:22.109Z,97941.03
2023-05-14T12:02:49.950Z,94004.53
2023-05-14T12:05:17.053Z,90596.00
2023-05-14T12:07:49.484Z,81746.06
2023-05-14T12:10:16.348Z,87190.34
2023-05-14T12:12:49.802Z,73115.34
2023-05-14T12:15:21.778Z,67030.56
2023-05-14T12:17:54.023Z,71908.66
2023-05-14T12:20:23.789Z,56567.41
2023-05-14T12:22:50.707Z,60552.66
2023-05-14T12:25:17.547Z,54079.19
2023-05-14T12:27:49.256Z,62975.81
2023-05-14T12:30:21.626Z,65213.25
2023-05-14T12:32:51.724Z,52827.53
2023-05-14T12:35:22.600Z,82737.06
2023-05-14T12:37:49.542Z,85357.72
2023-05-14T12:40:15.936Z,73682.13
2023-05-14T12:42:43.521Z,83002.72
2023-05-14T12:45:10.422Z,86666.66
2023-05-14T12:47:37.054Z,86143.03
2023-05-14T12:50:04.347Z,89285.78
2023-05-14T12:52:39.193Z,89809.81
2023-05-14T12:55:09.657Z,91120.19
2023-05-14T12:57:39.582Z,91120.19
2023-05-14T13:00:08.103Z,91120.19
2023-05-14T13:02:42.142Z,91120.19
2023-05-14T13:05:09.196Z,89023.81
2023-05-14T13:07:37.304Z,89285.78
2023-05-14T13:10:05.880Z,86928.50
2023-05-14T13:12:32.737Z,83002.72
2023-05-14T13:15:00.791Z,78558.13
2023-05-14T13:17:27.515Z,87714.09
2023-05-14T13:19:54.238Z,79342.13
2023-05-14T13:22:20.996Z,74901.59
2023-05-14T13:24:47.411Z,71509.22
2023-05-14T13:27:13.750Z,66556.31
2023-05-14T13:29:40.275Z,62971.75
2023-05-14T13:32:07.107Z,64997.59
2023-05-14T13:34:33.816Z,63238.13
2023-05-14T13:37:00.242Z,54054.84
2023-05-14T13:39:27.347Z,54941.56
2023-05-14T13:41:57.094Z,68380.34
2023-05-14T13:44:25.732Z,55132.34
2023-05-14T13:46:52.740Z,64887.72
2023-05-14T13:49:19.219Z,67598.53
2023-05-14T13:51:47.642Z,79342.13
2023-05-14T13:54:22.211Z,74901.59
2023-05-14T13:56:52.968Z,78558.13
2023-05-14T13:59:20.634Z,75945.97
2023-05-14T14:01:48.217Z,73596.50
2023-05-14T14:04:25.670Z,66816.84
2023-05-14T14:06:52.153Z,76468.28
2023-05-14T14:09:18.687Z,81172.00
2023-05-14T14:11:51.244Z,71770.06
2023-05-14T14:14:20.186Z,72291.81
2023-05-14T14:16:47.605Z,73074.56
2023-05-14T14:19:16.042Z,79864.84
2023-05-14T14:21:43.852Z,67077.38
2023-05-14T14:24:10.624Z,62896.50
2023-05-14T14:26:37.034Z,62125.91
2023-05-14T14:29:03.613Z,59896.28
2023-05-14T14:31:31.053Z,61032.28
2023-05-14T14:33:57.584Z,73596.50
2023-05-14T14:36:24.076Z,72291.81
2023-05-14T14:38:50.494Z,67077.38
2023-05-14T14:41:16.884Z,64427.97
2023-05-14T14:43:43.518Z,78558.13
2023-05-14T14:46:10.998Z,78035.56
2023-05-14T14:48:37.810Z,74118.50
2023-05-14T14:51:06.304Z,67859.13
2023-05-14T14:53:34.007Z,67077.38
2023-05-14T14:56:01.210Z,67859.13
2023-05-14T14:58:27.963Z,67337.94
2023-05-14T15:00:57.302Z,65034.19
2023-05-14T15:03:24.927Z,64379.13
2023-05-14T15:05:58.644Z,70726.78
2023-05-14T15:08:30.028Z,73596.50
2023-05-14T15:11:00.515Z,59512.28
2023-05-14T15:13:27.200Z,59581.38
2023-05-14T15:15:53.653Z,62992.06
2023-05-14T15:18:20.794Z,56640.50
2023-05-14T15:20:47.315Z,64122.84
2023-05-14T15:23:13.675Z,59719.53
2023-05-14T15:25:40.158Z,65890.81
2023-05-14T15:28:07.298Z,63394.72
2023-05-14T15:30:33.769Z,65481.81
2023-05-14T15:33:00.551Z,70466.00
2023-05-14T15:35:27.014Z,64659.88
2023-05-14T15:37:58.384Z,67309.44
2023-05-14T15:40:27.353Z,69423.03
2023-05-14T15:42:54.094Z,65876.59
2023-05-14T15:45:21.002Z,65308.88
2023-05-14T15:47:49.589Z,66816.84
2023-05-14T15:50:16.064Z,63561.47
2023-05-14T15:52:42.443Z,74379.50
2023-05-14T15:55:09.354Z,67598.53
2023-05-14T15:57:45.540Z,70205.22
2023-05-14T16:00:12.626Z,74640.53
2023-05-14T16:02:40.336Z,67297.22
2023-05-14T16:05:08.610Z,71509.22
2023-05-14T16:07:36.122Z,71770.06
2023-05-14T16:10:02.559Z,74640.53
2023-05-14T16:12:29.010Z,79603.47
2023-05-14T16:14:57.433Z,73857.47
2023-05-14T16:17:23.921Z,72813.66
2023-05-14T16:19:50.507Z,74640.53
2023-05-14T16:22:16.918Z,70726.78
2023-05-14T16:24:45.452Z,71509.22
2023-05-14T16:27:12.222Z,76207.13
2023-05-14T16:29:38.985Z,73074.56
2023-05-14T16:32:08.987Z,73857.47
2023-05-14T16:34:37.682Z,73335.53
2023-05-14T16:37:04.693Z,73335.53
2023-05-14T16:39:40.471Z,77513.06
2023-05-14T16:42:06.913Z,79864.84
2023-05-14T16:44:33.422Z,83264.31
2023-05-14T16:46:59.845Z,81433.47
2023-05-14T16:49:26.306Z,78819.44
2023-05-14T16:51:52.718Z,79603.47
2023-05-14T16:54:19.129Z,81694.97
2023-05-14T16:56:48.492Z,82218.03
2023-05-14T16:59:16.018Z,80910.53
2023-05-14T17:01:47.844Z,82218.03
2023-05-14T17:04:17.746Z,81433.47
2023-05-14T17:06:45.998Z,83525.94
2023-05-14T17:09:12.429Z,83525.94
2023-05-14T17:11:38.834Z,81172.00
2023-05-14T17:14:06.434Z,81956.50
2023-05-14T17:16:33.915Z,81694.97
2023-05-14T17:19:00.514Z,81694.97
2023-05-14T17:21:27.781Z,81172.00
2023-05-14T17:23:54.612Z,80126.25
2023-05-14T17:26:21.797Z,79080.78
2023-05-14T17:28:48.237Z,78558.13
2023-05-14T17:31:14.765Z,74232.69
2023-05-14T17:33:41.337Z,76468.28
2023-05-14T17:36:07.912Z,74116.44
2023-05-14T17:38:34.688Z,73302.91
2023-05-14T17:41:02.071Z,68909.81
2023-05-14T17:43:28.590Z,68746.88
2023-05-14T17:45:55.262Z,66196.09
2023-05-14T17:48:23.177Z,64236.75
2023-05-14T17:50:51.598Z,61922.59
2023-05-14T17:53:24.386Z,61812.84
2023-05-14T17:55:51.437Z,57911.63
2023-05-14T17:58:17.891Z,57326.78
2023-05-14T18:00:44.789Z,56222.31
2023-05-14T18:03:11.644Z,55414.44
2023-05-14T18:05:38.450Z,55487.50
2023-05-14T18:08:05.285Z,54562.09
2023-05-14T18:10:31.903Z,49178.34
2023-05-14T18:12:58.322Z,50066.00
2023-05-14T18:15:25.555Z,46174.31
2023-05-14T18:17:52.737Z,47049.16
2023-05-14T18:20:19.631Z,46255.31
2023-05-14T18:22:46.486Z,48373.94
2023-05-14T18:25:13.628Z,49962.63
2023-05-14T18:27:44.580Z,49083.09
2023-05-14T18:30:13.300Z,46478.06
2023-05-14T18:32:41.586Z,44704.56
2023-05-14T18:35:09.915Z,46089.28
2023-05-14T18:37:36.827Z,46042.72
2023-05-14T18:40:04.857Z,45587.16
2023-05-14T18:42:35.007Z,45431.28
2023-05-14T18:45:11.697Z,44838.16
2023-05-14T18:47:39.687Z,43393.16
2023-05-14T18:50:07.888Z,43352.69
2023-05-14T18:52:41.626Z,42867.09
2023-05-14T18:55:08.498Z,41669.56
2023-05-14T18:57:36.800Z,41048.69
2023-05-14T19:00:05.074Z,39795.09
2023-05-14T19:02:31.661Z,40205.50
2023-05-14T19:04:58.175Z,38786.47
2023-05-14T19:07:30.342Z,38038.75
2023-05-14T19:09:57.228Z,37475.00
2023-05-14T19:12:23.855Z,38283.25
2023-05-14T19:14:50.439Z,38010.44
2023-05-14T19:17:18.564Z,36458.88
2023-05-14T19:19:46.937Z,37537.63
2023-05-14T19:22:13.397Z,36370.00
2023-05-14T19:24:40.098Z,33611.91
2023-05-14T19:27:06.446Z,29212.22
2023-05-14T19:29:34.209Z,28555.03
2023-05-14T19:32:00.946Z,24736.97
2023-05-14T19:34:28.680Z,16854.75
2023-05-14T19:36:55.540Z,10942.53
2023-05-14T19:39:23.895Z,6321.84
2023-05-14T19:41:50.303Z,4269.97
2023-05-14T19:44:16.700Z,2988.13
2023-05-14T19:46:43.237Z,1706.69
2023-05-14T19:49:09.771Z,938.03
2023-05-14T19:51:36.283Z,169.53
2023-05-14T19:54:06.796Z,-598.81
2023-05-14T19:56:33.361Z,-1110.97
2023-05-14T19:58:59.788Z,-1879.06
2023-05-14T20:01:26.705Z,-2902.97
2023-05-14T20:04:00.187Z,-3414.81
2023-05-14T20:06:27.141Z,-3926.56
2023-05-14T20:08:55.131Z,-4182.44
2023-05-14T20:11:21.909Z,-4182.44
2023-05-14T20:13:48.735Z,-4438.28
2023-05-14T20:16:17.453Z,-4694.09
2023-05-14T20:18:44.598Z,-5461.50
2023-05-14T20:21:11.108Z,-5973.00
2023-05-14T20:23:37.652Z,-6228.72
2023-05-14T20:26:04.624Z,-6995.78
2023-05-14T20:28:31.051Z,-7251.44
2023-05-14T20:31:01.173Z,-6995.78
2023-05-14T20:33:29.232Z,-7507.09
2023-05-14T20:35:56.199Z,-7507.09
2023-05-14T20:38:22.893Z,-7507.09
2023-05-14T20:40:49.451Z,-7507.09
2023-05-14T20:43:16.087Z,-7762.72
2023-05-14T20:45:42.556Z,-7762.72
2023-05-14T20:48:11.415Z,-7507.09
2023-05-14T20:50:37.965Z,-7507.09
2023-05-14T20:53:04.388Z,-7762.72
2023-05-14T20:55:32.067Z,-7762.72
2023-05-14T20:57:58.533Z,-7762.72
2023-05-14T21:00:25.180Z,-7507.09
2023-05-14T21:02:51.758Z,-7251.44
2023-05-14T21:05:18.458Z,-7251.44
2023-05-14T21:07:44.973Z,-7507.09
2023-05-14T21:10:11.481Z,-7762.72
2023-05-14T21:12:37.938Z,-7507.09
2023-05-14T21:15:04.732Z,-7762.72
2023-05-14T21:17:31.422Z,-8018.31
2023-05-14T21:19:57.892Z,-8018.31
2023-05-14T21:22:24.695Z,-8273.91
2023-05-14T21:24:51.329Z,-8273.91
2023-05-14T21:27:17.816Z,-8273.91
2023-05-14T21:29:47.141Z,-8529.47
2023-05-14T21:32:13.671Z,-8529.47
2023-05-14T21:34:40.113Z,-8273.91
2023-05-14T21:37:06.751Z,-8273.91
2023-05-14T21:39:33.342Z,-8273.91
2023-05-14T21:41:59.813Z,-8273.91
2023-05-14T21:44:26.445Z,-8018.31
2023-05-14T21:46:52.886Z,-6484.41
2023-05-14T21:49:19.298Z,-4694.09
2023-05-14T21:51:45.740Z,-3414.81
2023-05-14T21:54:12.172Z,-1879.06
2023-05-14T21:56:38.675Z,-854.91
2023-05-14T21:59:05.066Z,169.53
2023-05-14T22:01:32.589Z,425.69
2023-05-14T22:04:00.296Z,938.03
2023-05-14T22:06:26.756Z,938.03
2023-05-14T22:08:53.481Z,1194.22
2023-05-14T22:11:19.881Z,1450.44
2023-05-14T22:13:46.425Z,1194.22
2023-05-14T22:16:14.036Z,1194.22
2023-05-14T22:18:41.073Z,938.03
2023-05-14T22:21:07.616Z,425.69
2023-05-14T22:23:34.266Z,-86.59
2023-05-14T22:26:00.852Z,169.53
2023-05-14T22:28:27.581Z,-342.72
2023-05-14T22:30:54.081Z,938.03
2023-05-14T22:33:20.705Z,2219.22
2023-05-14T22:35:47.226Z,2988.13
2023-05-14T22:38:14.052Z,2988.13
2023-05-14T22:40:40.522Z,2988.13
2023-05-14T22:43:06.909Z,681.84
2023-05-14T22:45:33.463Z,-854.91
2023-05-14T22:48:00.050Z,-1367.03
2023-05-14T22:50:26.869Z,-1110.97
2023-05-14T22:52:53.386Z,-1110.97
2023-05-14T22:55:19.777Z,-1110.97
2023-05-14T22:57:46.207Z,-854.91
2023-05-14T23:00:13.220Z,-342.72
2023-05-14T23:02:39.685Z,169.53
2023-05-14T23:05:07.651Z,169.53
2023-05-14T23:07:34.542Z,681.84
2023-05-14T23:10:01.029Z,1194.22
2023-05-14T23:12:27.458Z,1962.94
2023-05-14T23:14:53.842Z,2219.22
2023-05-14T23:17:20.279Z,1706.69
2023-05-14T23:19:46.805Z,1706.69
2023-05-14T23:22:13.358Z,1706.69
2023-05-14T23:24:39.756Z,938.03
2023-05-14T23:27:06.386Z,938.03
2023-05-14T23:29:32.882Z,938.03
2023-05-14T23:31:59.334Z,938.03
2023-05-14T23:34:25.829Z,681.84
2023-05-14T23:36:52.716Z,938.03
2023-05-14T23:39:19.267Z,681.84
2023-05-14T23:41:45.798Z,169.53
2023-05-14T23:44:12.290Z,-86.59
2023-05-14T23:46:38.796Z,-86.59
2023-05-14T23:49:05.339Z,-342.72
2023-05-14T23:51:31.894Z,169.53
2023-05-14T23:53:58.511Z,-86.59
2023-05-14T23:56:26.302Z,169.53
2023-05-14T23:58:53.082Z,169.53
